sensor_id;sensor_type;location;lat;lon;timestamp;temperature;humidity
22469;DHT22;11401;50.792;4.352;2022-10-31T00:01:22;20.30;64.70
22469;DHT22;11401;50.792;4.352;2022-10-31T00:03:49;20.40;65.10
22469;DHT22;11401;50.792;4.352;2022-10-31T00:06:16;20.30;64.80
22469;DHT22;11401;50.792;4.352;2022-10-31T00:08:51;20.40;64.80
22469;DHT22;11401;50.792;4.352;2022-10-31T00:11:18;20.30;64.60
22469;DHT22;11401;50.792;4.352;2022-10-31T00:13:45;20.30;64.90
22469;DHT22;11401;50.792;4.352;2022-10-31T00:16:22;20.30;64.90
22469;DHT22;11401;50.792;4.352;2022-10-31T00:18:51;20.30;64.80
22469;DHT22;11401;50.792;4.352;2022-10-31T00:21:18;20.30;65.00
22469;DHT22;11401;50.792;4.352;2022-10-31T00:23:46;20.40;64.80
22469;DHT22;11401;50.792;4.352;2022-10-31T00:26:13;20.40;64.60
22469;DHT22;11401;50.792;4.352;2022-10-31T00:28:40;20.30;64.50
22469;DHT22;11401;50.792;4.352;2022-10-31T00:31:09;20.30;64.60
22469;DHT22;11401;50.792;4.352;2022-10-31T00:33:37;20.30;64.80
22469;DHT22;11401;50.792;4.352;2022-10-31T00:36:05;20.30;64.80
22469;DHT22;11401;50.792;4.352;2022-10-31T00:38:32;20.20;65.10
22469;DHT22;11401;50.792;4.352;2022-10-31T00:40:59;20.20;64.80
22469;DHT22;11401;50.792;4.352;2022-10-31T00:43:26;20.20;64.70
22469;DHT22;11401;50.792;4.352;2022-10-31T00:45:53;20.20;64.70
22469;DHT22;11401;50.792;4.352;2022-10-31T00:48:23;20.30;64.70
22469;DHT22;11401;50.792;4.352;2022-10-31T00:50:52;20.20;64.50
22469;DHT22;11401;50.792;4.352;2022-10-31T00:53:19;20.20;64.50
22469;DHT22;11401;50.792;4.352;2022-10-31T00:55:46;20.20;64.50
22469;DHT22;11401;50.792;4.352;2022-10-31T00:58:14;20.30;64.50
22469;DHT22;11401;50.792;4.352;2022-10-31T01:00:49;20.20;64.30
22469;DHT22;11401;50.792;4.352;2022-10-31T01:03:27;20.20;64.10
22469;DHT22;11401;50.792;4.352;2022-10-31T01:05:59;20.10;64.60
22469;DHT22;11401;50.792;4.352;2022-10-31T01:08:27;20.10;64.50
22469;DHT22;11401;50.792;4.352;2022-10-31T01:11:06;20.10;64.40
22469;DHT22;11401;50.792;4.352;2022-10-31T01:13:35;20.10;64.10
22469;DHT22;11401;50.792;4.352;2022-10-31T01:16:03;20.10;64.30
22469;DHT22;11401;50.792;4.352;2022-10-31T01:18:32;20.10;64.50
22469;DHT22;11401;50.792;4.352;2022-10-31T01:21:21;20.10;64.70
22469;DHT22;11401;50.792;4.352;2022-10-31T01:23:49;20.10;64.70
22469;DHT22;11401;50.792;4.352;2022-10-31T01:26:19;20.10;64.60
22469;DHT22;11401;50.792;4.352;2022-10-31T01:28:53;20.10;64.50
22469;DHT22;11401;50.792;4.352;2022-10-31T01:31:22;20.10;64.50
22469;DHT22;11401;50.792;4.352;2022-10-31T01:33:49;20.10;64.30
22469;DHT22;11401;50.792;4.352;2022-10-31T01:36:26;20.10;64.30
22469;DHT22;11401;50.792;4.352;2022-10-31T01:38:56;20.10;64.40
22469;DHT22;11401;50.792;4.352;2022-10-31T01:41:29;20.00;64.10
22469;DHT22;11401;50.792;4.352;2022-10-31T01:44:02;20.00;64.50
22469;DHT22;11401;50.792;4.352;2022-10-31T01:49:13;19.90;64.10
22469;DHT22;11401;50.792;4.352;2022-10-31T01:51:47;19.90;64.40
22469;DHT22;11401;50.792;4.352;2022-10-31T01:54:18;19.90;64.30
22469;DHT22;11401;50.792;4.352;2022-10-31T01:56:49;19.90;64.20
22469;DHT22;11401;50.792;4.352;2022-10-31T01:59:19;19.90;64.00
22469;DHT22;11401;50.792;4.352;2022-10-31T02:01:49;19.90;64.30
22469;DHT22;11401;50.792;4.352;2022-10-31T02:04:18;19.90;64.00
22469;DHT22;11401;50.792;4.352;2022-10-31T02:06:50;19.80;64.00
22469;DHT22;11401;50.792;4.352;2022-10-31T02:09:19;19.90;64.30
22469;DHT22;11401;50.792;4.352;2022-10-31T02:11:52;19.80;64.20
22469;DHT22;11401;50.792;4.352;2022-10-31T02:14:22;19.80;64.20
22469;DHT22;11401;50.792;4.352;2022-10-31T02:16:51;19.80;64.20
22469;DHT22;11401;50.792;4.352;2022-10-31T02:19:31;19.70;64.10
22469;DHT22;11401;50.792;4.352;2022-10-31T02:25:30;19.80;64.00
22469;DHT22;11401;50.792;4.352;2022-10-31T02:34:21;19.70;64.20
22469;DHT22;11401;50.792;4.352;2022-10-31T02:43:02;19.70;64.30
22469;DHT22;11401;50.792;4.352;2022-10-31T02:46:00;19.60;64.10
22469;DHT22;11401;50.792;4.352;2022-10-31T02:48:28;19.60;64.30
22469;DHT22;11401;50.792;4.352;2022-10-31T02:51:00;19.60;64.40
22469;DHT22;11401;50.792;4.352;2022-10-31T02:53:35;19.50;63.80
22469;DHT22;11401;50.792;4.352;2022-10-31T02:56:13;19.50;64.00
22469;DHT22;11401;50.792;4.352;2022-10-31T02:58:56;19.60;64.10
22469;DHT22;11401;50.792;4.352;2022-10-31T03:06:36;19.50;64.20
22469;DHT22;11401;50.792;4.352;2022-10-31T03:09:22;19.50;64.40
22469;DHT22;11401;50.792;4.352;2022-10-31T03:14:51;19.50;64.40
22469;DHT22;11401;50.792;4.352;2022-10-31T03:17:30;19.50;64.10
22469;DHT22;11401;50.792;4.352;2022-10-31T03:20:00;19.50;64.30
22469;DHT22;11401;50.792;4.352;2022-10-31T03:22:31;19.40;64.30
22469;DHT22;11401;50.792;4.352;2022-10-31T03:25:02;19.40;64.10
22469;DHT22;11401;50.792;4.352;2022-10-31T03:27:34;19.40;64.10
22469;DHT22;11401;50.792;4.352;2022-10-31T03:30:04;19.40;64.00
22469;DHT22;11401;50.792;4.352;2022-10-31T03:32:49;19.40;64.60
22469;DHT22;11401;50.792;4.352;2022-10-31T03:35:20;19.40;64.00
22469;DHT22;11401;50.792;4.352;2022-10-31T03:37:51;19.40;64.40
22469;DHT22;11401;50.792;4.352;2022-10-31T03:40:21;19.40;64.20
22469;DHT22;11401;50.792;4.352;2022-10-31T03:42:54;19.40;63.80
22469;DHT22;11401;50.792;4.352;2022-10-31T03:45:25;19.40;63.80
22469;DHT22;11401;50.792;4.352;2022-10-31T03:47:53;19.40;64.30
22469;DHT22;11401;50.792;4.352;2022-10-31T03:50:21;19.30;64.30
22469;DHT22;11401;50.792;4.352;2022-10-31T03:52:56;19.40;64.50
22469;DHT22;11401;50.792;4.352;2022-10-31T03:55:35;19.40;64.60
22469;DHT22;11401;50.792;4.352;2022-10-31T03:58:13;19.30;63.90
22469;DHT22;11401;50.792;4.352;2022-10-31T04:00:46;19.30;64.30
22469;DHT22;11401;50.792;4.352;2022-10-31T04:03:19;19.30;64.40
22469;DHT22;11401;50.792;4.352;2022-10-31T04:05:52;19.30;64.30
22469;DHT22;11401;50.792;4.352;2022-10-31T04:08:23;19.40;64.50
22469;DHT22;11401;50.792;4.352;2022-10-31T04:10:52;19.30;64.30
22469;DHT22;11401;50.792;4.352;2022-10-31T04:13:24;19.40;64.30
22469;DHT22;11401;50.792;4.352;2022-10-31T04:16:00;19.30;64.10
22469;DHT22;11401;50.792;4.352;2022-10-31T04:18:28;19.30;64.30
22469;DHT22;11401;50.792;4.352;2022-10-31T04:21:03;19.30;64.50
22469;DHT22;11401;50.792;4.352;2022-10-31T04:23:31;19.30;64.50
22469;DHT22;11401;50.792;4.352;2022-10-31T04:26:01;19.30;64.40
22469;DHT22;11401;50.792;4.352;2022-10-31T04:28:28;19.30;64.70
22469;DHT22;11401;50.792;4.352;2022-10-31T04:30:56;19.30;64.20
22469;DHT22;11401;50.792;4.352;2022-10-31T04:33:23;19.20;64.00
22469;DHT22;11401;50.792;4.352;2022-10-31T04:35:50;19.20;64.50
22469;DHT22;11401;50.792;4.352;2022-10-31T04:38:17;19.10;64.10
22469;DHT22;11401;50.792;4.352;2022-10-31T04:40:45;19.10;63.70
22469;DHT22;11401;50.792;4.352;2022-10-31T04:43:32;19.10;63.90
22469;DHT22;11401;50.792;4.352;2022-10-31T04:46:00;19.10;64.10
22469;DHT22;11401;50.792;4.352;2022-10-31T04:48:27;19.10;63.80
22469;DHT22;11401;50.792;4.352;2022-10-31T04:51:01;19.10;64.20
22469;DHT22;11401;50.792;4.352;2022-10-31T04:53:29;19.10;63.90
22469;DHT22;11401;50.792;4.352;2022-10-31T04:56:14;19.10;64.00
22469;DHT22;11401;50.792;4.352;2022-10-31T04:58:45;19.10;63.80
22469;DHT22;11401;50.792;4.352;2022-10-31T05:01:12;19.10;64.30
22469;DHT22;11401;50.792;4.352;2022-10-31T05:03:39;19.10;64.40
22469;DHT22;11401;50.792;4.352;2022-10-31T05:06:07;19.10;64.20
22469;DHT22;11401;50.792;4.352;2022-10-31T05:08:36;19.10;64.20
22469;DHT22;11401;50.792;4.352;2022-10-31T05:11:06;19.10;64.20
22469;DHT22;11401;50.792;4.352;2022-10-31T05:13:33;19.10;64.10
22469;DHT22;11401;50.792;4.352;2022-10-31T05:16:00;19.10;64.40
22469;DHT22;11401;50.792;4.352;2022-10-31T05:18:45;19.10;64.40
22469;DHT22;11401;50.792;4.352;2022-10-31T05:21:31;19.10;64.20
22469;DHT22;11401;50.792;4.352;2022-10-31T05:24:01;19.10;63.80
22469;DHT22;11401;50.792;4.352;2022-10-31T05:26:28;19.10;63.80
22469;DHT22;11401;50.792;4.352;2022-10-31T05:28:55;19.10;64.20
22469;DHT22;11401;50.792;4.352;2022-10-31T05:31:22;19.10;64.10
22469;DHT22;11401;50.792;4.352;2022-10-31T05:33:51;19.10;64.30
22469;DHT22;11401;50.792;4.352;2022-10-31T05:36:33;19.10;64.30
22469;DHT22;11401;50.792;4.352;2022-10-31T05:39:03;19.10;64.30
22469;DHT22;11401;50.792;4.352;2022-10-31T05:41:35;19.10;64.40
22469;DHT22;11401;50.792;4.352;2022-10-31T05:44:05;19.10;64.10
22469;DHT22;11401;50.792;4.352;2022-10-31T05:46:43;19.10;64.10
22469;DHT22;11401;50.792;4.352;2022-10-31T05:49:19;19.10;64.20
22469;DHT22;11401;50.792;4.352;2022-10-31T05:52:15;19.10;64.40
22469;DHT22;11401;50.792;4.352;2022-10-31T05:54:50;19.10;64.90
22469;DHT22;11401;50.792;4.352;2022-10-31T05:57:17;19.10;64.30
22469;DHT22;11401;50.792;4.352;2022-10-31T05:59:45;19.10;64.40
22469;DHT22;11401;50.792;4.352;2022-10-31T06:02:18;19.10;64.60
22469;DHT22;11401;50.792;4.352;2022-10-31T06:05:04;19.10;64.90
22469;DHT22;11401;50.792;4.352;2022-10-31T06:07:35;19.20;65.50
22469;DHT22;11401;50.792;4.352;2022-10-31T06:10:07;19.20;65.30
22469;DHT22;11401;50.792;4.352;2022-10-31T06:12:35;19.20;64.30
22469;DHT22;11401;50.792;4.352;2022-10-31T06:15:16;19.20;64.60
22469;DHT22;11401;50.792;4.352;2022-10-31T06:18:00;19.30;64.40
22469;DHT22;11401;50.792;4.352;2022-10-31T06:20:30;19.30;64.20
22469;DHT22;11401;50.792;4.352;2022-10-31T06:23:02;19.30;64.50
22469;DHT22;11401;50.792;4.352;2022-10-31T06:25:31;19.30;65.50
22469;DHT22;11401;50.792;4.352;2022-10-31T06:27:59;19.30;64.60
22469;DHT22;11401;50.792;4.352;2022-10-31T06:30:40;19.20;65.20
22469;DHT22;11401;50.792;4.352;2022-10-31T06:33:07;19.20;64.70
22469;DHT22;11401;50.792;4.352;2022-10-31T06:35:37;19.20;65.00
22469;DHT22;11401;50.792;4.352;2022-10-31T06:38:04;19.30;64.90
22469;DHT22;11401;50.792;4.352;2022-10-31T06:40:36;19.40;65.10
22469;DHT22;11401;50.792;4.352;2022-10-31T06:43:30;19.40;64.80
22469;DHT22;11401;50.792;4.352;2022-10-31T06:46:26;19.40;64.60
22469;DHT22;11401;50.792;4.352;2022-10-31T06:49:20;19.40;64.70
22469;DHT22;11401;50.792;4.352;2022-10-31T06:51:53;19.50;64.80
22469;DHT22;11401;50.792;4.352;2022-10-31T06:54:20;19.50;64.90
22469;DHT22;11401;50.792;4.352;2022-10-31T06:56:48;19.50;64.60
22469;DHT22;11401;50.792;4.352;2022-10-31T06:59:15;19.50;64.80
22469;DHT22;11401;50.792;4.352;2022-10-31T07:02:09;19.50;64.80
22469;DHT22;11401;50.792;4.352;2022-10-31T07:04:37;19.50;64.80
22469;DHT22;11401;50.792;4.352;2022-10-31T07:07:05;19.50;64.90
22469;DHT22;11401;50.792;4.352;2022-10-31T07:09:33;19.50;65.00
22469;DHT22;11401;50.792;4.352;2022-10-31T07:12:03;19.50;64.90
22469;DHT22;11401;50.792;4.352;2022-10-31T07:14:32;19.30;64.50
22469;DHT22;11401;50.792;4.352;2022-10-31T07:17:00;19.20;66.00
22469;DHT22;11401;50.792;4.352;2022-10-31T07:19:39;19.20;66.40
22469;DHT22;11401;50.792;4.352;2022-10-31T07:22:08;19.20;66.20
22469;DHT22;11401;50.792;4.352;2022-10-31T07:24:36;19.20;66.30
22469;DHT22;11401;50.792;4.352;2022-10-31T07:27:12;19.20;66.30
22469;DHT22;11401;50.792;4.352;2022-10-31T07:29:39;19.20;66.50
22469;DHT22;11401;50.792;4.352;2022-10-31T07:32:07;19.20;66.50
22469;DHT22;11401;50.792;4.352;2022-10-31T07:34:38;19.20;66.80
22469;DHT22;11401;50.792;4.352;2022-10-31T07:37:36;19.30;66.80
22469;DHT22;11401;50.792;4.352;2022-10-31T07:40:04;19.30;67.00
22469;DHT22;11401;50.792;4.352;2022-10-31T07:42:38;19.30;67.20
22469;DHT22;11401;50.792;4.352;2022-10-31T07:45:15;19.30;67.10
22469;DHT22;11401;50.792;4.352;2022-10-31T07:48:02;19.30;67.30
22469;DHT22;11401;50.792;4.352;2022-10-31T07:50:48;19.40;67.40
22469;DHT22;11401;50.792;4.352;2022-10-31T07:53:33;19.40;67.30
22469;DHT22;11401;50.792;4.352;2022-10-31T07:56:10;19.40;67.40
22469;DHT22;11401;50.792;4.352;2022-10-31T07:58:37;19.40;67.40
22469;DHT22;11401;50.792;4.352;2022-10-31T08:01:04;19.50;67.40
22469;DHT22;11401;50.792;4.352;2022-10-31T08:03:39;19.50;67.40
22469;DHT22;11401;50.792;4.352;2022-10-31T08:06:09;19.50;67.60
22469;DHT22;11401;50.792;4.352;2022-10-31T08:08:42;19.50;67.60
22469;DHT22;11401;50.792;4.352;2022-10-31T08:11:09;19.60;67.70
22469;DHT22;11401;50.792;4.352;2022-10-31T08:13:37;19.60;67.60
22469;DHT22;11401;50.792;4.352;2022-10-31T08:16:04;19.60;67.70
22469;DHT22;11401;50.792;4.352;2022-10-31T08:18:41;19.60;67.80
22469;DHT22;11401;50.792;4.352;2022-10-31T08:21:14;19.60;67.90
22469;DHT22;11401;50.792;4.352;2022-10-31T08:23:43;19.60;67.80
22469;DHT22;11401;50.792;4.352;2022-10-31T08:26:11;19.70;68.00
22469;DHT22;11401;50.792;4.352;2022-10-31T08:28:38;19.70;68.70
22469;DHT22;11401;50.792;4.352;2022-10-31T08:31:05;19.70;67.80
22469;DHT22;11401;50.792;4.352;2022-10-31T08:33:38;19.70;67.90
22469;DHT22;11401;50.792;4.352;2022-10-31T08:36:26;19.80;67.70
22469;DHT22;11401;50.792;4.352;2022-10-31T08:39:13;19.80;67.80
22469;DHT22;11401;50.792;4.352;2022-10-31T08:41:40;19.80;67.60
22469;DHT22;11401;50.792;4.352;2022-10-31T08:44:11;19.80;67.50
22469;DHT22;11401;50.792;4.352;2022-10-31T08:46:38;19.90;67.50
22469;DHT22;11401;50.792;4.352;2022-10-31T08:49:05;19.80;67.50
22469;DHT22;11401;50.792;4.352;2022-10-31T08:51:33;19.80;67.60
22469;DHT22;11401;50.792;4.352;2022-10-31T08:54:01;19.80;67.70
22469;DHT22;11401;50.792;4.352;2022-10-31T08:56:46;19.90;68.00
22469;DHT22;11401;50.792;4.352;2022-10-31T08:59:48;19.90;67.90
22469;DHT22;11401;50.792;4.352;2022-10-31T09:02:24;19.90;68.00
22469;DHT22;11401;50.792;4.352;2022-10-31T09:04:56;19.90;67.90
22469;DHT22;11401;50.792;4.352;2022-10-31T09:07:24;19.90;67.80
22469;DHT22;11401;50.792;4.352;2022-10-31T09:09:53;19.80;67.90
22469;DHT22;11401;50.792;4.352;2022-10-31T09:12:20;19.80;67.80
22469;DHT22;11401;50.792;4.352;2022-10-31T09:15:05;19.80;67.80
22469;DHT22;11401;50.792;4.352;2022-10-31T09:17:50;19.80;67.70
22469;DHT22;11401;50.792;4.352;2022-10-31T09:20:25;19.80;67.80
22469;DHT22;11401;50.792;4.352;2022-10-31T09:22:57;19.80;67.70
22469;DHT22;11401;50.792;4.352;2022-10-31T09:25:25;19.90;67.90
22469;DHT22;11401;50.792;4.352;2022-10-31T09:28:15;19.90;67.70
22469;DHT22;11401;50.792;4.352;2022-10-31T09:30:47;19.90;67.40
22469;DHT22;11401;50.792;4.352;2022-10-31T09:33:24;19.90;67.50
22469;DHT22;11401;50.792;4.352;2022-10-31T09:36:11;20.00;67.50
22469;DHT22;11401;50.792;4.352;2022-10-31T09:38:40;20.10;68.00
22469;DHT22;11401;50.792;4.352;2022-10-31T09:49:55;20.70;66.20
22469;DHT22;11401;50.792;4.352;2022-10-31T09:52:30;20.80;65.80
22469;DHT22;11401;50.792;4.352;2022-10-31T09:55:27;20.80;65.90
22469;DHT22;11401;50.792;4.352;2022-10-31T09:57:58;20.80;65.90
22469;DHT22;11401;50.792;4.352;2022-10-31T10:00:26;20.80;66.00
22469;DHT22;11401;50.792;4.352;2022-10-31T10:06:28;20.90;65.70
22469;DHT22;11401;50.792;4.352;2022-10-31T10:09:25;20.80;66.00
22469;DHT22;11401;50.792;4.352;2022-10-31T10:20:53;20.90;65.70
22469;DHT22;11401;50.792;4.352;2022-10-31T10:25:57;20.80;65.70
22469;DHT22;11401;50.792;4.352;2022-10-31T10:28:38;20.90;66.20
22469;DHT22;11401;50.792;4.352;2022-10-31T10:31:14;20.90;65.60
22469;DHT22;11401;50.792;4.352;2022-10-31T10:36:51;20.90;65.70
22469;DHT22;11401;50.792;4.352;2022-10-31T10:39:25;20.90;65.80
22469;DHT22;11401;50.792;4.352;2022-10-31T10:41:55;20.90;65.70
22469;DHT22;11401;50.792;4.352;2022-10-31T10:44:45;20.80;65.70
22469;DHT22;11401;50.792;4.352;2022-10-31T10:47:50;20.90;65.80
22469;DHT22;11401;50.792;4.352;2022-10-31T10:50:21;20.90;65.70
22469;DHT22;11401;50.792;4.352;2022-10-31T10:53:00;20.90;65.80
22469;DHT22;11401;50.792;4.352;2022-10-31T10:58:06;20.90;65.70
22469;DHT22;11401;50.792;4.352;2022-10-31T11:00:41;20.90;65.70
22469;DHT22;11401;50.792;4.352;2022-10-31T11:03:09;20.90;65.70
22469;DHT22;11401;50.792;4.352;2022-10-31T11:05:50;20.80;65.80
22469;DHT22;11401;50.792;4.352;2022-10-31T11:08:33;20.90;66.10
22469;DHT22;11401;50.792;4.352;2022-10-31T11:13:44;20.80;65.50
22469;DHT22;11401;50.792;4.352;2022-10-31T11:16:34;20.60;66.20
22469;DHT22;11401;50.792;4.352;2022-10-31T11:19:19;20.50;66.50
22469;DHT22;11401;50.792;4.352;2022-10-31T11:21:47;20.40;66.90
22469;DHT22;11401;50.792;4.352;2022-10-31T11:24:24;20.40;67.00
22469;DHT22;11401;50.792;4.352;2022-10-31T11:27:13;20.40;67.00
22469;DHT22;11401;50.792;4.352;2022-10-31T11:29:41;20.40;67.00
22469;DHT22;11401;50.792;4.352;2022-10-31T11:32:22;20.40;67.10
22469;DHT22;11401;50.792;4.352;2022-10-31T11:34:55;20.40;67.20
22469;DHT22;11401;50.792;4.352;2022-10-31T11:37:26;20.40;67.30
22469;DHT22;11401;50.792;4.352;2022-10-31T11:39:59;20.40;67.30
22469;DHT22;11401;50.792;4.352;2022-10-31T11:42:36;20.50;67.40
22469;DHT22;11401;50.792;4.352;2022-10-31T11:45:17;20.40;67.40
22469;DHT22;11401;50.792;4.352;2022-10-31T11:47:48;20.50;67.40
22469;DHT22;11401;50.792;4.352;2022-10-31T11:50:24;20.50;67.50
22469;DHT22;11401;50.792;4.352;2022-10-31T11:52:53;20.50;67.40
22469;DHT22;11401;50.792;4.352;2022-10-31T11:55:36;20.50;67.40
22469;DHT22;11401;50.792;4.352;2022-10-31T11:58:04;20.60;67.30
22469;DHT22;11401;50.792;4.352;2022-10-31T12:00:37;20.60;67.20
22469;DHT22;11401;50.792;4.352;2022-10-31T12:05:52;20.60;67.40
22469;DHT22;11401;50.792;4.352;2022-10-31T12:08:20;20.60;67.60
22469;DHT22;11401;50.792;4.352;2022-10-31T12:13:34;20.70;67.50
22469;DHT22;11401;50.792;4.352;2022-10-31T12:16:26;20.70;67.30
22469;DHT22;11401;50.792;4.352;2022-10-31T12:19:05;20.80;67.10
22469;DHT22;11401;50.792;4.352;2022-10-31T12:24:32;20.80;67.00
22469;DHT22;11401;50.792;4.352;2022-10-31T12:27:13;20.80;67.00
22469;DHT22;11401;50.792;4.352;2022-10-31T12:38:30;21.00;66.50
22469;DHT22;11401;50.792;4.352;2022-10-31T12:43:57;21.00;66.30
22469;DHT22;11401;50.792;4.352;2022-10-31T12:49:51;21.10;66.10
22469;DHT22;11401;50.792;4.352;2022-10-31T12:57:46;21.10;65.10
22469;DHT22;11401;50.792;4.352;2022-10-31T13:00:19;21.10;65.20
22469;DHT22;11401;50.792;4.352;2022-10-31T13:03:03;21.10;65.20
22469;DHT22;11401;50.792;4.352;2022-10-31T13:05:33;21.10;65.00
22469;DHT22;11401;50.792;4.352;2022-10-31T13:08:05;21.10;64.90
22469;DHT22;11401;50.792;4.352;2022-10-31T13:10:47;21.10;64.70
22469;DHT22;11401;50.792;4.352;2022-10-31T13:13:40;21.10;64.60
22469;DHT22;11401;50.792;4.352;2022-10-31T13:16:16;21.20;64.60
22469;DHT22;11401;50.792;4.352;2022-10-31T13:19:10;21.20;64.70
22469;DHT22;11401;50.792;4.352;2022-10-31T13:21:42;21.20;64.20
22469;DHT22;11401;50.792;4.352;2022-10-31T13:24:19;21.20;64.10
22469;DHT22;11401;50.792;4.352;2022-10-31T13:26:51;21.20;64.20
22469;DHT22;11401;50.792;4.352;2022-10-31T13:31:57;21.20;64.00
22469;DHT22;11401;50.792;4.352;2022-10-31T13:34:48;21.30;64.80
22469;DHT22;11401;50.792;4.352;2022-10-31T13:37:41;21.30;63.90
22469;DHT22;11401;50.792;4.352;2022-10-31T13:40:17;21.30;63.80
22469;DHT22;11401;50.792;4.352;2022-10-31T13:45:21;21.30;63.90
22469;DHT22;11401;50.792;4.352;2022-10-31T13:48:18;21.40;64.60
22469;DHT22;11401;50.792;4.352;2022-10-31T13:51:00;21.40;64.00
22469;DHT22;11401;50.792;4.352;2022-10-31T13:58:36;21.40;64.50
22469;DHT22;11401;50.792;4.352;2022-10-31T14:01:22;21.40;64.50
22469;DHT22;11401;50.792;4.352;2022-10-31T14:04:15;21.40;64.30
22469;DHT22;11401;50.792;4.352;2022-10-31T14:07:11;21.50;64.60
22469;DHT22;11401;50.792;4.352;2022-10-31T14:15:16;21.50;64.30
22469;DHT22;11401;50.792;4.352;2022-10-31T14:17:56;21.40;64.10
22469;DHT22;11401;50.792;4.352;2022-10-31T14:20:40;21.50;64.40
22469;DHT22;11401;50.792;4.352;2022-10-31T14:23:37;21.50;64.30
22469;DHT22;11401;50.792;4.352;2022-10-31T14:28:57;21.50;64.70
22469;DHT22;11401;50.792;4.352;2022-10-31T14:31:42;21.50;64.90
22469;DHT22;11401;50.792;4.352;2022-10-31T14:37:38;21.60;64.70
22469;DHT22;11401;50.792;4.352;2022-10-31T14:43:12;21.60;64.80
22469;DHT22;11401;50.792;4.352;2022-10-31T14:51:48;21.60;65.10
22469;DHT22;11401;50.792;4.352;2022-10-31T14:54:39;21.60;65.90
22469;DHT22;11401;50.792;4.352;2022-10-31T14:57:15;21.60;64.70
22469;DHT22;11401;50.792;4.352;2022-10-31T14:59:47;21.60;65.10
22469;DHT22;11401;50.792;4.352;2022-10-31T15:02:26;21.60;64.50
22469;DHT22;11401;50.792;4.352;2022-10-31T15:04:55;21.60;64.40
22469;DHT22;11401;50.792;4.352;2022-10-31T15:07:25;21.60;64.10
22469;DHT22;11401;50.792;4.352;2022-10-31T15:12:30;21.70;64.70
22469;DHT22;11401;50.792;4.352;2022-10-31T15:15:11;21.70;64.50
22469;DHT22;11401;50.792;4.352;2022-10-31T15:17:44;21.70;64.70
22469;DHT22;11401;50.792;4.352;2022-10-31T15:20:12;21.70;64.90
22469;DHT22;11401;50.792;4.352;2022-10-31T15:22:43;21.70;65.00
22469;DHT22;11401;50.792;4.352;2022-10-31T15:25:21;21.70;64.80
22469;DHT22;11401;50.792;4.352;2022-10-31T15:27:50;21.70;64.60
22469;DHT22;11401;50.792;4.352;2022-10-31T15:30:22;21.70;64.60
22469;DHT22;11401;50.792;4.352;2022-10-31T15:32:49;21.70;64.70
22469;DHT22;11401;50.792;4.352;2022-10-31T15:35:27;21.70;65.10
22469;DHT22;11401;50.792;4.352;2022-10-31T15:37:55;21.70;65.00
22469;DHT22;11401;50.792;4.352;2022-10-31T15:40:25;21.70;64.70
22469;DHT22;11401;50.792;4.352;2022-10-31T15:43:00;21.70;64.60
22469;DHT22;11401;50.792;4.352;2022-10-31T15:45:29;21.70;64.40
22469;DHT22;11401;50.792;4.352;2022-10-31T15:47:59;21.70;65.50
22469;DHT22;11401;50.792;4.352;2022-10-31T15:50:37;21.70;64.60
22469;DHT22;11401;50.792;4.352;2022-10-31T15:53:22;21.70;64.60
22469;DHT22;11401;50.792;4.352;2022-10-31T15:55:55;21.70;64.10
22469;DHT22;11401;50.792;4.352;2022-10-31T15:58:24;21.70;64.50
22469;DHT22;11401;50.792;4.352;2022-10-31T16:01:06;21.70;64.40
22469;DHT22;11401;50.792;4.352;2022-10-31T16:04:00;21.70;64.20
22469;DHT22;11401;50.792;4.352;2022-10-31T16:06:28;21.70;64.20
22469;DHT22;11401;50.792;4.352;2022-10-31T16:08:55;21.60;64.40
22469;DHT22;11401;50.792;4.352;2022-10-31T16:11:37;21.50;64.30
22469;DHT22;11401;50.792;4.352;2022-10-31T16:16:49;21.60;64.70
22469;DHT22;11401;50.792;4.352;2022-10-31T16:19:52;21.70;64.90
22469;DHT22;11401;50.792;4.352;2022-10-31T16:22:30;21.60;64.50
22469;DHT22;11401;50.792;4.352;2022-10-31T16:27:37;21.40;64.20
22469;DHT22;11401;50.792;4.352;2022-10-31T16:32:53;21.30;64.60
22469;DHT22;11401;50.792;4.352;2022-10-31T16:35:33;21.10;65.10
22469;DHT22;11401;50.792;4.352;2022-10-31T16:38:01;21.10;65.10
22469;DHT22;11401;50.792;4.352;2022-10-31T16:40:28;21.00;65.30
22469;DHT22;11401;50.792;4.352;2022-10-31T16:42:57;20.90;65.60
22469;DHT22;11401;50.792;4.352;2022-10-31T16:45:30;20.90;65.70
22469;DHT22;11401;50.792;4.352;2022-10-31T16:48:08;20.90;65.50
22469;DHT22;11401;50.792;4.352;2022-10-31T16:50:37;20.90;65.30
22469;DHT22;11401;50.792;4.352;2022-10-31T16:53:04;20.90;65.00
22469;DHT22;11401;50.792;4.352;2022-10-31T16:55:57;20.90;64.60
22469;DHT22;11401;50.792;4.352;2022-10-31T16:58:26;20.90;64.10
22469;DHT22;11401;50.792;4.352;2022-10-31T17:00:54;20.80;64.30
22469;DHT22;11401;50.792;4.352;2022-10-31T17:03:22;20.80;64.10
22469;DHT22;11401;50.792;4.352;2022-10-31T17:05:49;20.80;64.00
22469;DHT22;11401;50.792;4.352;2022-10-31T17:08:16;20.80;63.80
22469;DHT22;11401;50.792;4.352;2022-10-31T17:10:44;20.90;63.90
22469;DHT22;11401;50.792;4.352;2022-10-31T17:13:22;20.90;63.60
22469;DHT22;11401;50.792;4.352;2022-10-31T17:15:54;21.00;63.10
22469;DHT22;11401;50.792;4.352;2022-10-31T17:18:22;20.90;63.70
22469;DHT22;11401;50.792;4.352;2022-10-31T17:21:01;20.90;62.90
22469;DHT22;11401;50.792;4.352;2022-10-31T17:23:35;20.90;62.60
22469;DHT22;11401;50.792;4.352;2022-10-31T17:26:04;20.90;62.90
22469;DHT22;11401;50.792;4.352;2022-10-31T17:28:32;20.80;62.80
22469;DHT22;11401;50.792;4.352;2022-10-31T17:30:59;20.80;62.50
22469;DHT22;11401;50.792;4.352;2022-10-31T17:33:27;20.80;62.40
22469;DHT22;11401;50.792;4.352;2022-10-31T17:35:54;20.80;63.20
22469;DHT22;11401;50.792;4.352;2022-10-31T17:38:21;20.90;62.70
22469;DHT22;11401;50.792;4.352;2022-10-31T17:40:48;21.00;62.40
22469;DHT22;11401;50.792;4.352;2022-10-31T17:43:15;21.00;62.60
22469;DHT22;11401;50.792;4.352;2022-10-31T17:45:42;21.00;62.60
22469;DHT22;11401;50.792;4.352;2022-10-31T17:48:10;21.00;62.30
22469;DHT22;11401;50.792;4.352;2022-10-31T17:50:38;21.10;63.00
22469;DHT22;11401;50.792;4.352;2022-10-31T17:53:05;21.20;63.20
22469;DHT22;11401;50.792;4.352;2022-10-31T17:55:31;21.10;62.10
22469;DHT22;11401;50.792;4.352;2022-10-31T17:58:02;21.10;62.10
22469;DHT22;11401;50.792;4.352;2022-10-31T18:00:29;21.10;62.20
22469;DHT22;11401;50.792;4.352;2022-10-31T18:02:56;21.10;62.20
22469;DHT22;11401;50.792;4.352;2022-10-31T18:05:23;21.20;61.90
22469;DHT22;11401;50.792;4.352;2022-10-31T18:07:50;21.10;61.70
22469;DHT22;11401;50.792;4.352;2022-10-31T18:10:17;21.10;61.70
22469;DHT22;11401;50.792;4.352;2022-10-31T18:12:44;21.10;62.00
22469;DHT22;11401;50.792;4.352;2022-10-31T18:15:11;21.20;61.80
22469;DHT22;11401;50.792;4.352;2022-10-31T18:17:38;21.20;62.20
22469;DHT22;11401;50.792;4.352;2022-10-31T18:20:08;21.10;61.50